createdAt,value
2022-09-23T00:01:20.049Z,16.56
2022-09-23T00:03:58.331Z,16.42
2022-09-23T00:06:27.523Z,16.30
2022-09-23T00:08:55.645Z,16.19
2022-09-23T00:11:27.655Z,16.23
2022-09-23T00:13:56.431Z,16.44
2022-09-23T00:16:25.454Z,16.60
2022-09-23T00:18:53.081Z,16.65
2022-09-23T00:21:21.511Z,16.48
2022-09-23T00:23:49.513Z,16.36
2022-09-23T00:26:18.357Z,16.35
2022-09-23T00:28:46.570Z,16.37
2022-09-23T00:31:15.478Z,16.52
2022-09-23T00:33:43.249Z,16.42
2022-09-23T00:36:12.327Z,16.74
2022-09-23T00:38:40.039Z,17.08
2022-09-23T00:41:07.566Z,16.02
2022-09-23T00:43:39.830Z,15.09
2022-09-23T00:46:08.834Z,15.67
2022-09-23T00:48:38.937Z,16.09
2022-09-23T00:51:07.589Z,16.07
2022-09-23T00:53:35.697Z,16.14
2022-09-23T00:56:07.042Z,16.48
2022-09-23T00:58:36.656Z,16.56
2022-09-23T01:01:05.385Z,16.49
2022-09-23T01:03:33.719Z,16.60
2022-09-23T01:06:01.381Z,16.68
2022-09-23T01:08:29.244Z,16.65
2022-09-23T01:11:02.960Z,16.66
2022-09-23T01:13:34.303Z,16.91
2022-09-23T01:16:05.954Z,15.80
2022-09-23T01:18:38.716Z,15.34
2022-09-23T01:21:14.763Z,15.58
2022-09-23T01:24:02.129Z,15.84
2022-09-23T01:26:40.111Z,16.04
2022-09-23T01:29:23.277Z,16.37
2022-09-23T01:31:54.151Z,16.12
2022-09-23T01:34:24.663Z,16.34
2022-09-23T01:36:55.430Z,16.73
2022-09-23T01:39:27.355Z,16.49
2022-09-23T01:41:58.844Z,16.36
2022-09-23T01:44:30.778Z,16.50
2022-09-23T01:47:02.258Z,16.54
2022-09-23T01:49:33.624Z,16.95
2022-09-23T01:52:06.754Z,16.66
2022-09-23T01:54:38.218Z,16.58
2022-09-23T01:57:07.931Z,16.20
2022-09-23T01:59:37.878Z,16.53
2022-09-23T02:02:09.094Z,16.81
2022-09-23T02:04:40.092Z,16.70
2022-09-23T02:07:09.871Z,16.89
2022-09-23T02:09:42.258Z,15.44
2022-09-23T02:12:12.380Z,14.90
2022-09-23T02:14:42.787Z,15.03
2022-09-23T02:17:12.698Z,15.46
2022-09-23T02:19:42.810Z,15.94
2022-09-23T02:22:14.129Z,16.55
2022-09-23T02:24:42.130Z,16.64
2022-09-23T02:27:15.116Z,16.33
2022-09-23T02:29:49.020Z,16.28
2022-09-23T02:32:20.057Z,16.25
2022-09-23T02:34:53.355Z,16.57
2022-09-23T02:37:24.906Z,16.87
2022-09-23T02:39:57.477Z,16.31
2022-09-23T02:42:27.085Z,15.19
2022-09-23T02:44:55.566Z,15.70
2022-09-23T02:47:24.742Z,15.96
2022-09-23T02:49:55.749Z,16.28
2022-09-23T02:52:24.489Z,16.69
2022-09-23T02:54:52.370Z,16.17
2022-09-23T02:57:20.534Z,14.80
2022-09-23T02:59:50.038Z,15.29
2022-09-23T03:02:27.811Z,15.89
2022-09-23T03:05:03.369Z,16.31
2022-09-23T03:07:35.896Z,16.42
2022-09-23T03:10:07.665Z,16.49
2022-09-23T03:12:39.270Z,16.31
2022-09-23T03:15:14.702Z,16.57
2022-09-23T03:17:44.257Z,16.56
2022-09-23T03:20:14.799Z,16.37
2022-09-23T03:22:45.344Z,16.62
2022-09-23T03:25:15.796Z,16.79
2022-09-23T03:27:45.130Z,15.85
2022-09-23T03:30:13.575Z,14.86
2022-09-23T03:32:43.556Z,15.45
2022-09-23T03:35:11.773Z,15.80
2022-09-23T03:37:41.939Z,15.90
2022-09-23T03:40:12.874Z,15.99
2022-09-23T03:42:40.892Z,16.16
2022-09-23T03:45:12.769Z,16.55
2022-09-23T03:47:41.745Z,16.04
2022-09-23T03:50:12.986Z,15.68
2022-09-23T03:52:40.861Z,15.54
2022-09-23T03:55:09.599Z,16.10
2022-09-23T03:57:37.719Z,16.21
2022-09-23T04:00:07.034Z,16.26
2022-09-23T04:02:41.095Z,16.78
2022-09-23T04:05:09.507Z,15.16
2022-09-23T04:07:37.286Z,14.82
2022-09-23T04:10:06.570Z,15.41
2022-09-23T04:12:34.537Z,15.48
2022-09-23T04:15:02.503Z,15.37
2022-09-23T04:17:30.572Z,15.90
2022-09-23T04:19:58.336Z,16.30
2022-09-23T04:22:26.098Z,16.61
2022-09-23T04:24:54.271Z,16.66
2022-09-23T04:27:21.986Z,16.50
2022-09-23T04:29:49.596Z,16.40
2022-09-23T04:32:17.462Z,16.71
2022-09-23T04:34:45.227Z,15.80
2022-09-23T04:37:12.885Z,14.61
2022-09-23T04:39:40.600Z,14.71
2022-09-23T04:42:08.518Z,15.30
2022-09-23T04:44:36.133Z,15.49
2022-09-23T04:47:04.614Z,15.92
2022-09-23T04:49:33.358Z,16.10
2022-09-23T04:52:02.547Z,16.14
2022-09-23T04:54:31.122Z,16.29
2022-09-23T04:56:59.092Z,16.44
2022-09-23T04:59:26.756Z,16.49
2022-09-23T05:01:54.823Z,16.39
2022-09-23T05:04:22.588Z,16.34
2022-09-23T05:06:50.146Z,16.55
2022-09-23T05:09:18.329Z,16.42
2022-09-23T05:11:46.156Z,16.37
2022-09-23T05:14:13.859Z,16.65
2022-09-23T05:16:41.791Z,15.99
2022-09-23T05:19:09.689Z,15.16
2022-09-23T05:21:38.670Z,15.25
2022-09-23T05:24:07.052Z,16.01
2022-09-23T05:26:34.810Z,16.25
2022-09-23T05:29:02.379Z,16.06
2022-09-23T05:31:30.648Z,16.32
2022-09-23T05:33:59.852Z,16.59
2022-09-23T05:36:27.865Z,15.44
2022-09-23T05:38:57.005Z,14.95
2022-09-23T05:41:25.495Z,15.73
2022-09-23T05:43:53.658Z,16.22
2022-09-23T05:46:22.605Z,15.72
2022-09-23T05:48:50.806Z,15.78
2022-09-23T05:51:19.721Z,15.85
2022-09-23T05:53:48.306Z,16.07
2022-09-23T05:56:17.498Z,15.79
2022-09-23T05:58:45.019Z,16.73
2022-09-23T06:01:14.566Z,15.84
2022-09-23T06:03:42.532Z,14.63
2022-09-23T06:06:13.943Z,15.34
2022-09-23T06:08:42.052Z,16.00
2022-09-23T06:11:11.351Z,15.70
2022-09-23T06:13:39.422Z,15.65
2022-09-23T06:16:07.794Z,15.62
2022-09-23T06:18:35.847Z,16.00
2022-09-23T06:21:03.734Z,16.13
2022-09-23T06:23:31.745Z,16.87
2022-09-23T06:26:03.977Z,15.48
2022-09-23T06:28:32.865Z,14.71
2022-09-23T06:31:02.866Z,15.42
2022-09-23T06:33:36.810Z,16.11
2022-09-23T06:36:06.085Z,16.48
2022-09-23T06:38:34.016Z,16.08
2022-09-23T06:41:02.630Z,14.69
2022-09-23T06:43:30.814Z,15.82
2022-09-23T06:45:59.396Z,16.36
2022-09-23T06:48:27.775Z,15.95
2022-09-23T06:50:58.444Z,15.22
2022-09-23T06:53:26.365Z,15.74
2022-09-23T06:55:58.355Z,16.48
2022-09-23T06:58:26.462Z,15.59
2022-09-23T07:00:54.674Z,14.80
2022-09-23T07:03:22.203Z,15.41
2022-09-23T07:05:54.039Z,15.80
2022-09-23T07:08:22.334Z,15.85
2022-09-23T07:10:52.083Z,16.34
2022-09-23T07:13:20.491Z,16.54
2022-09-23T07:15:52.346Z,15.05
2022-09-23T07:18:23.361Z,15.14
2022-09-23T07:20:51.126Z,15.77
2022-09-23T07:23:18.718Z,16.42
2022-09-23T07:25:49.755Z,16.78
2022-09-23T07:28:17.388Z,16.89
2022-09-23T07:30:55.660Z,15.49
2022-09-23T07:33:32.474Z,15.27
2022-09-23T07:36:03.921Z,16.03
2022-09-23T07:38:32.596Z,15.78
2022-09-23T07:41:04.359Z,15.38
2022-09-23T07:43:32.947Z,15.90
2022-09-23T07:46:02.544Z,16.48
2022-09-23T07:48:34.080Z,15.58
2022-09-23T07:51:06.676Z,14.47
2022-09-23T07:53:34.776Z,15.76
2022-09-23T07:56:05.995Z,15.70
2022-09-23T07:58:34.757Z,14.80
2022-09-23T08:01:03.408Z,15.54
2022-09-23T08:03:31.533Z,16.44
2022-09-23T08:06:09.586Z,15.60
2022-09-23T08:08:39.897Z,15.04
2022-09-23T08:11:09.468Z,16.13
2022-09-23T08:13:37.916Z,15.86
2022-09-23T08:16:06.320Z,15.20
2022-09-23T08:18:34.600Z,16.15
2022-09-23T08:21:02.992Z,16.08
2022-09-23T08:23:33.059Z,15.38
2022-09-23T08:26:02.726Z,15.90
2022-09-23T08:28:31.933Z,16.73
2022-09-23T08:31:00.420Z,16.31
2022-09-23T08:33:28.354Z,15.48
2022-09-23T08:36:00.160Z,16.39
2022-09-23T08:38:28.442Z,16.06
2022-09-23T08:41:06.736Z,14.94
2022-09-23T08:43:37.433Z,15.50
2022-09-23T08:46:08.719Z,16.45
2022-09-23T08:48:38.274Z,16.72
2022-09-23T08:51:07.492Z,16.01
2022-09-23T08:53:36.180Z,16.94
2022-09-23T08:56:05.152Z,15.78
2022-09-23T08:58:37.388Z,15.80
2022-09-23T09:01:10.113Z,16.64
2022-09-23T09:03:40.734Z,17.38
2022-09-23T09:06:12.218Z,16.93
2022-09-23T09:08:41.401Z,15.93
2022-09-23T09:11:11.961Z,15.30
2022-09-23T09:13:48.587Z,16.48
2022-09-23T09:16:48.294Z,16.81
2022-09-23T09:19:19.062Z,15.66
2022-09-23T09:21:48.949Z,15.56
2022-09-23T09:24:18.695Z,16.45
2022-09-23T09:26:46.721Z,17.33
2022-09-23T09:29:34.209Z,17.88
2022-09-23T09:32:11.786Z,16.96
2022-09-23T09:34:42.367Z,16.13
2022-09-23T09:37:14.331Z,15.64
2022-09-23T09:39:42.193Z,15.50
2022-09-23T09:42:13.823Z,16.39
2022-09-23T09:44:44.476Z,17.07
2022-09-23T09:47:21.911Z,16.69
2022-09-23T09:49:53.809Z,16.12
2022-09-23T09:52:22.688Z,15.74
2022-09-23T09:54:51.356Z,15.51
2022-09-23T09:57:24.951Z,15.24
2022-09-23T09:59:51.789Z,14.84
2022-09-23T10:02:23.834Z,15.05
2022-09-23T10:04:56.475Z,16.45
2022-09-23T10:07:25.784Z,15.80
2022-09-23T10:09:55.785Z,14.94
2022-09-23T10:12:26.990Z,15.55
2022-09-23T10:14:56.455Z,16.15
2022-09-23T10:17:32.886Z,15.37
2022-09-23T10:20:02.261Z,15.28
2022-09-23T10:22:33.479Z,16.26
2022-09-23T10:25:03.378Z,16.48
2022-09-23T10:27:32.517Z,15.64
2022-09-23T10:30:02.328Z,14.95
2022-09-23T10:32:31.834Z,15.69
2022-09-23T10:35:03.491Z,16.61
2022-09-23T10:37:33.231Z,16.81
2022-09-23T10:40:29.755Z,16.14
2022-09-23T10:43:21.629Z,15.33
2022-09-23T10:46:07.923Z,16.06
2022-09-23T10:48:44.305Z,16.53
2022-09-23T10:51:15.304Z,16.01
2022-09-23T10:53:49.369Z,15.39
2022-09-23T10:56:22.725Z,15.11
2022-09-23T10:58:59.969Z,15.50
2022-09-23T11:01:33.535Z,16.91
2022-09-23T11:04:06.719Z,16.76
2022-09-23T11:06:41.575Z,16.23
2022-09-23T11:09:14.981Z,15.69
2022-09-23T11:11:48.795Z,15.18
2022-09-23T11:14:29.459Z,14.82
2022-09-23T11:17:14.322Z,14.54
2022-09-23T11:19:57.866Z,15.34
2022-09-23T11:22:26.035Z,15.42
2022-09-23T11:25:16.714Z,15.10
2022-09-23T11:27:53.372Z,14.77
2022-09-23T11:30:21.817Z,15.28
2022-09-23T11:33:05.426Z,16.74
2022-09-23T11:35:36.517Z,17.37
2022-09-23T11:38:07.203Z,17.05
2022-09-23T11:40:36.310Z,16.72
2022-09-23T11:43:07.140Z,16.40
2022-09-23T11:45:37.160Z,16.14
2022-09-23T11:48:06.151Z,16.04
2022-09-23T11:50:36.367Z,15.94
2022-09-23T11:53:08.633Z,15.81
2022-09-23T11:55:49.595Z,15.75
2022-09-23T11:58:25.738Z,15.53
2022-09-23T12:01:00.895Z,15.23
2022-09-23T12:37:24.387Z,15.67
2022-09-23T12:39:52.353Z,15.56
2022-09-23T12:42:22.025Z,15.47
2022-09-23T12:44:50.719Z,15.46
2022-09-23T12:47:36.639Z,15.52
2022-09-23T12:50:34.301Z,15.68
2022-09-23T12:53:16.094Z,16.09
2022-09-23T12:55:46.487Z,16.31
2022-09-23T12:58:28.387Z,16.41
2022-09-23T13:01:07.002Z,16.91
2022-09-23T13:03:53.329Z,17.75
2022-09-23T13:06:48.637Z,18.70
2022-09-23T13:09:18.357Z,19.50
2022-09-23T13:11:47.487Z,19.85
2022-09-23T13:14:18.771Z,20.03
2022-09-23T13:16:47.306Z,20.18
2022-09-23T13:19:38.539Z,20.38
2022-09-23T13:22:08.384Z,20.80
2022-09-23T13:24:39.688Z,21.49
2022-09-23T13:27:13.083Z,21.77
2022-09-23T13:29:43.097Z,20.96
2022-09-23T13:32:12.496Z,20.63
2022-09-23T13:34:41.145Z,20.58
2022-09-23T13:37:22.040Z,20.70
2022-09-23T13:39:50.616Z,21.22
2022-09-23T13:42:21.229Z,21.79
2022-09-23T13:44:48.990Z,22.20
2022-09-23T13:47:16.555Z,22.27
2022-09-23T13:49:47.576Z,21.94
2022-09-23T13:52:24.085Z,21.80
2022-09-23T13:54:52.229Z,21.62
2022-09-23T13:57:25.875Z,21.18
2022-09-23T13:59:53.906Z,21.01
2022-09-23T14:02:25.044Z,21.41
2022-09-23T14:04:55.985Z,21.72
2022-09-23T14:07:24.468Z,21.35
2022-09-23T14:09:54.484Z,21.43
2022-09-23T14:12:22.368Z,21.76
2022-09-23T14:14:51.589Z,22.19
2022-09-23T14:17:20.951Z,22.51
2022-09-23T14:19:49.330Z,22.62
2022-09-23T14:22:24.472Z,22.69
2022-09-23T14:24:52.539Z,22.61
2022-09-23T14:27:25.032Z,22.43
2022-09-23T14:29:53.265Z,21.84
2022-09-23T14:32:23.637Z,21.45
2022-09-23T14:34:52.218Z,21.52
2022-09-23T14:37:40.031Z,21.15
2022-09-23T14:40:12.470Z,20.61
2022-09-23T14:42:42.828Z,20.50
2022-09-23T14:45:13.584Z,20.73
2022-09-23T14:47:43.709Z,21.24
2022-09-23T14:50:34.067Z,22.02
2022-09-23T14:53:02.554Z,22.88
2022-09-23T14:55:31.344Z,23.49
2022-09-23T14:58:04.540Z,24.09
2022-09-23T15:00:32.916Z,24.43
2022-09-23T15:03:01.514Z,24.67
2022-09-23T15:05:38.840Z,25.13
2022-09-23T15:08:07.258Z,25.60
2022-09-23T15:10:37.497Z,25.99
2022-09-23T15:13:07.036Z,26.03
2022-09-23T15:15:35.676Z,25.74
2022-09-23T15:18:04.362Z,25.29
2022-09-23T15:20:32.632Z,24.73
2022-09-23T15:23:01.224Z,24.06
2022-09-23T15:25:32.106Z,23.18
2022-09-23T15:28:01.919Z,22.16
2022-09-23T15:30:31.472Z,21.01
2022-09-23T15:33:00.071Z,20.06
2022-09-23T15:35:28.740Z,19.46
2022-09-23T15:38:02.126Z,19.15
2022-09-23T15:40:31.793Z,18.77
2022-09-23T15:43:02.102Z,18.26
2022-09-23T15:45:32.983Z,17.83
2022-09-23T15:48:05.619Z,17.46
2022-09-23T15:50:34.933Z,17.15
2022-09-23T15:53:03.260Z,17.03
2022-09-23T15:55:31.561Z,17.00
2022-09-23T15:57:59.918Z,16.80
2022-09-23T16:00:27.878Z,16.59
2022-09-23T16:02:55.373Z,16.30
2022-09-23T16:05:26.179Z,16.08
2022-09-23T16:07:53.933Z,15.87
2022-09-23T16:10:24.054Z,15.66
2022-09-23T16:12:52.647Z,15.47
2022-09-23T16:15:21.771Z,15.31
2022-09-23T16:17:49.603Z,15.15
2022-09-23T16:20:17.789Z,15.02
2022-09-23T16:22:49.288Z,14.89
2022-09-23T16:25:17.603Z,14.78
2022-09-23T16:27:45.651Z,14.67
2022-09-23T16:30:13.487Z,14.58
2022-09-23T16:32:42.022Z,14.47
2022-09-23T16:35:10.289Z,14.34
2022-09-23T16:37:38.260Z,14.22
2022-09-23T16:40:09.284Z,14.10
2022-09-23T16:42:38.804Z,13.95
2022-09-23T16:45:07.999Z,13.80
2022-09-23T16:47:41.578Z,13.67
2022-09-23T16:50:09.923Z,13.55
2022-09-23T16:52:37.750Z,13.44
2022-09-23T16:55:08.359Z,13.31
2022-09-23T16:57:36.916Z,13.21
2022-09-23T17:00:24.794Z,13.12
2022-09-23T17:03:11.048Z,13.03
2022-09-23T17:05:38.749Z,12.93
2022-09-23T17:08:07.237Z,12.85
2022-09-23T17:10:34.834Z,12.76
2022-09-23T17:13:02.630Z,12.99
2022-09-23T17:15:30.770Z,14.34
2022-09-23T17:17:58.405Z,15.63
2022-09-23T17:20:26.270Z,16.55
2022-09-23T17:22:54.627Z,16.37
2022-09-23T17:25:22.194Z,15.11
2022-09-23T17:27:50.062Z,14.80
2022-09-23T17:30:18.440Z,15.67
2022-09-23T17:32:46.708Z,15.92
2022-09-23T17:35:14.471Z,15.23
2022-09-23T17:37:42.544Z,14.28
2022-09-23T17:40:10.896Z,13.67
2022-09-23T17:42:41.253Z,14.42
2022-09-23T17:45:12.288Z,15.43
2022-09-23T17:47:41.904Z,16.11
2022-09-23T17:50:10.490Z,16.41
2022-09-23T17:52:38.302Z,15.58
2022-09-23T17:55:07.549Z,14.67
2022-09-23T17:57:35.677Z,13.99
2022-09-23T18:00:03.534Z,13.46
2022-09-23T18:02:39.848Z,13.47
2022-09-23T18:05:08.422Z,14.64
2022-09-23T18:07:36.048Z,15.49
2022-09-23T18:10:04.973Z,15.93
2022-09-23T18:12:32.947Z,15.05
2022-09-23T18:15:00.911Z,14.04
2022-09-23T18:17:28.810Z,14.10
2022-09-23T18:19:56.436Z,15.13
2022-09-23T18:22:24.315Z,15.71
2022-09-23T18:24:52.480Z,15.89
2022-09-23T18:27:20.364Z,14.98
2022-09-23T18:29:47.933Z,14.07
2022-09-23T18:32:16.103Z,13.38
2022-09-23T18:34:44.139Z,13.18
2022-09-23T18:37:16.072Z,14.21
2022-09-23T18:39:44.844Z,15.19
2022-09-23T18:42:12.552Z,15.81
2022-09-23T18:44:40.528Z,15.93
2022-09-23T18:47:28.875Z,15.00
2022-09-23T18:50:14.654Z,13.98
2022-09-23T18:52:43.490Z,13.27
2022-09-23T18:55:11.309Z,13.07
2022-09-23T18:57:39.392Z,14.00
2022-09-23T19:00:09.350Z,14.97
2022-09-23T19:02:37.063Z,15.60
2022-09-23T19:05:05.443Z,15.65
2022-09-23T19:07:34.050Z,14.59
2022-09-23T19:10:01.988Z,13.46
2022-09-23T19:12:30.787Z,13.07
2022-09-23T19:14:58.882Z,13.96
2022-09-23T19:17:27.132Z,14.74
2022-09-23T19:19:55.186Z,15.14
2022-09-23T19:22:23.359Z,15.37
2022-09-23T19:24:51.735Z,15.59
2022-09-23T19:27:19.612Z,14.32
2022-09-23T19:29:47.548Z,13.36
2022-09-23T19:32:15.852Z,13.92
2022-09-23T19:34:43.794Z,14.83
2022-09-23T19:37:12.207Z,15.38
2022-09-23T19:39:40.471Z,15.06
2022-09-23T19:42:08.542Z,13.67
2022-09-23T19:44:39.555Z,13.01
2022-09-23T19:47:08.042Z,13.70
2022-09-23T19:49:36.342Z,14.49
2022-09-23T19:52:04.408Z,14.91
2022-09-23T19:54:32.378Z,15.18
2022-09-23T19:57:01.268Z,15.41
2022-09-23T19:59:29.568Z,15.38
2022-09-23T20:01:57.571Z,14.37
2022-09-23T20:04:25.688Z,13.33
2022-09-23T20:06:54.367Z,13.47
2022-09-23T20:09:22.130Z,14.34
2022-09-23T20:11:50.609Z,14.91
2022-09-23T20:14:19.506Z,15.17
2022-09-23T20:16:47.168Z,15.24
2022-09-23T20:19:15.235Z,15.42
2022-09-23T20:21:43.117Z,15.31
2022-09-23T20:24:11.900Z,14.25
2022-09-23T20:26:58.186Z,13.21
2022-09-23T20:29:26.152Z,12.76
2022-09-23T20:31:53.955Z,13.69
2022-09-23T20:34:22.195Z,14.55
2022-09-23T20:36:50.466Z,15.04
2022-09-23T20:39:18.126Z,15.27
2022-09-23T20:41:48.046Z,15.08
2022-09-23T20:44:16.321Z,13.88
2022-09-23T20:46:48.284Z,12.75
2022-09-23T20:49:17.074Z,12.87
2022-09-23T20:51:44.805Z,13.70
2022-09-23T20:54:12.706Z,14.34
2022-09-23T20:56:40.197Z,14.73
2022-09-23T20:59:09.333Z,14.76
2022-09-23T21:01:37.167Z,14.48
2022-09-23T21:04:05.724Z,13.42
2022-09-23T21:06:34.890Z,13.09
2022-09-23T21:28:02.233Z,12.28
2022-09-23T21:30:30.853Z,12.87
2022-09-23T21:32:59.028Z,13.68
2022-09-23T21:35:27.300Z,14.15
2022-09-23T21:37:55.058Z,14.36
2022-09-23T21:40:41.292Z,14.50
2022-09-23T21:43:09.332Z,14.59
2022-09-23T21:45:36.892Z,14.82
2022-09-23T21:48:05.064Z,15.02
2022-09-23T21:50:40.318Z,15.18
2022-09-23T21:53:08.440Z,15.07
2022-09-23T21:55:37.415Z,13.99
2022-09-23T21:58:04.916Z,12.94
2022-09-23T22:00:33.197Z,12.54
2022-09-23T22:03:01.369Z,13.36
2022-09-23T22:05:29.029Z,14.12
2022-09-23T22:07:56.906Z,14.51
2022-09-23T22:10:25.055Z,14.67
2022-09-23T22:12:52.731Z,13.69
2022-09-23T22:15:20.701Z,12.58
2022-09-23T22:17:48.970Z,13.02
2022-09-23T22:20:16.632Z,13.62
2022-09-23T22:22:44.303Z,13.94
2022-09-23T22:25:12.263Z,14.10
2022-09-23T22:28:00.005Z,14.22
2022-09-23T22:30:46.393Z,14.46
2022-09-23T22:33:15.305Z,14.68
2022-09-23T22:35:43.261Z,14.54
2022-09-23T22:38:11.451Z,13.37
2022-09-23T22:40:42.328Z,12.42
2022-09-23T22:43:10.338Z,12.89
2022-09-23T22:45:39.223Z,13.58
2022-09-23T22:48:06.992Z,14.00
2022-09-23T22:50:34.878Z,14.25
2022-09-23T22:53:03.640Z,14.41
2022-09-23T22:55:31.627Z,14.19
2022-09-23T22:58:15.274Z,12.96
2022-09-23T23:00:48.095Z,12.05
2022-09-23T23:03:19.983Z,12.68
2022-09-23T23:05:47.539Z,13.65
2022-09-23T23:08:17.056Z,13.96
2022-09-23T23:10:44.977Z,14.06
2022-09-23T23:13:12.990Z,13.02
2022-09-23T23:15:40.966Z,11.84
2022-09-23T23:18:08.722Z,12.28
2022-09-23T23:20:37.325Z,13.01
2022-09-23T23:23:07.962Z,13.56
2022-09-23T23:25:35.716Z,13.94
2022-09-23T23:28:05.201Z,14.17
2022-09-23T23:30:34.333Z,14.32
2022-09-23T23:33:02.272Z,14.18
2022-09-23T23:35:29.820Z,13.06
2022-09-23T23:37:57.788Z,11.90
2022-09-23T23:40:27.434Z,11.34
2022-09-23T23:42:55.261Z,12.01
2022-09-23T23:45:23.335Z,12.76
2022-09-23T23:47:51.208Z,13.24
2022-09-23T23:50:18.861Z,13.54
2022-09-23T23:52:46.929Z,13.64
2022-09-23T23:55:16.639Z,13.83
2022-09-23T23:57:44.199Z,14.11
